createdAt,value
2018-05-12T00:00:26.300Z,23.20
2018-05-12T00:01:32.848Z,22.77
2018-05-12T00:02:38.615Z,23.20
2018-05-12T00:03:45.160Z,23.35
2018-05-12T00:04:50.940Z,23.30
2018-05-12T00:05:56.834Z,23.40
2018-05-12T00:07:02.731Z,23.30
2018-05-12T00:08:08.509Z,23.30
2018-05-12T00:09:14.271Z,27.23
2018-05-12T00:10:20.074Z,25.10
2018-05-12T00:11:25.838Z,32.53
2018-05-12T00:12:31.607Z,27.83
2018-05-12T00:13:38.204Z,25.92
2018-05-12T00:14:43.975Z,29.35
2018-05-12T00:15:49.779Z,28.08
2018-05-12T00:16:55.565Z,26.05
2018-05-12T00:18:01.366Z,144.75
2018-05-12T00:19:07.118Z,112.20
2018-05-12T00:20:12.919Z,66.87
2018-05-12T00:21:18.699Z,64.00
2018-05-12T00:22:24.484Z,46.70
2018-05-12T00:23:30.256Z,35.38
2018-05-12T00:24:36.796Z,30.25
2018-05-12T00:25:43.342Z,28.38
2018-05-12T00:26:49.138Z,27.27
2018-05-12T00:27:54.911Z,25.45
2018-05-12T00:29:00.672Z,25.83
2018-05-12T00:30:06.874Z,27.65
2018-05-12T00:31:12.714Z,98.87
2018-05-12T00:32:18.540Z,99.18
2018-05-12T00:33:25.077Z,76.53
2018-05-12T00:34:30.841Z,41.50
2018-05-12T00:35:37.379Z,71.53
2018-05-12T00:36:43.161Z,86.20
2018-05-12T00:37:48.967Z,32.90
2018-05-12T00:38:54.738Z,60.15
2018-05-12T00:40:00.519Z,62.62
2018-05-12T00:41:06.400Z,81.43
2018-05-12T00:42:13.064Z,86.55
2018-05-12T00:43:18.859Z,83.43
2018-05-12T00:44:24.637Z,55.60
2018-05-12T00:45:30.395Z,73.78
2018-05-12T00:46:36.957Z,44.75
2018-05-12T00:47:43.500Z,35.85
2018-05-12T00:48:50.052Z,32.30
2018-05-12T00:49:55.823Z,36.00
2018-05-12T00:51:02.367Z,32.05
2018-05-12T00:52:08.172Z,28.25
2018-05-12T00:53:14.032Z,29.90
2018-05-12T00:54:19.527Z,45.17
2018-05-12T00:55:25.351Z,92.32
2018-05-12T00:56:31.559Z,45.55
2018-05-12T00:57:37.355Z,42.00
2018-05-12T00:58:43.120Z,35.38
2018-05-12T00:59:48.923Z,30.45
2018-05-12T01:00:55.448Z,26.12
2018-05-12T01:02:01.227Z,28.48
2018-05-12T01:03:07.762Z,24.73
2018-05-12T01:04:13.535Z,27.23
2018-05-12T01:05:20.113Z,24.85
2018-05-12T01:06:25.871Z,25.12
2018-05-12T01:07:31.641Z,27.13
2018-05-12T01:08:37.417Z,28.25
2018-05-12T01:09:43.955Z,29.50
2018-05-12T01:10:49.749Z,29.20
2018-05-12T01:11:55.523Z,24.70
2018-05-12T01:13:01.291Z,28.35
2018-05-12T01:14:07.959Z,23.25
2018-05-12T01:15:14.494Z,26.10
2018-05-12T01:16:20.290Z,24.75
2018-05-12T01:17:26.069Z,28.42
2018-05-12T01:18:31.840Z,27.60
2018-05-12T01:19:37.280Z,26.60
2018-05-12T01:20:43.807Z,25.73
2018-05-12T01:21:49.604Z,28.65
2018-05-12T01:22:56.136Z,24.33
2018-05-12T01:24:01.916Z,26.95
2018-05-12T01:25:07.683Z,24.75
2018-05-12T01:26:13.451Z,24.23
2018-05-12T01:27:19.255Z,25.67
2018-05-12T01:28:25.015Z,25.62
2018-05-12T01:29:30.792Z,25.55
2018-05-12T01:30:37.493Z,24.60
2018-05-12T01:31:43.258Z,24.20
2018-05-12T01:32:49.044Z,24.42
2018-05-12T01:33:55.572Z,24.35
2018-05-12T01:35:01.339Z,25.00
2018-05-12T01:36:07.885Z,25.80
2018-05-12T01:37:13.658Z,25.30
2018-05-12T01:38:20.209Z,25.80
2018-05-12T01:39:26.743Z,24.37
2018-05-12T01:40:34.019Z,24.95
2018-05-12T01:41:39.911Z,25.30
2018-05-12T01:42:45.674Z,24.83
2018-05-12T01:43:51.479Z,24.63
2018-05-12T01:44:58.040Z,27.50
2018-05-12T01:46:04.581Z,25.20
2018-05-12T01:47:11.847Z,25.37
2018-05-12T01:48:18.376Z,26.67
2018-05-12T01:49:24.168Z,26.58
2018-05-12T01:50:30.704Z,25.92
2018-05-12T01:51:37.987Z,24.00
2018-05-12T01:52:43.755Z,24.98
2018-05-12T01:53:50.299Z,24.58
2018-05-12T01:54:56.982Z,24.85
2018-05-12T01:56:03.511Z,27.52
2018-05-12T01:57:09.276Z,25.75
2018-05-12T01:58:15.806Z,24.92
2018-05-12T01:59:21.583Z,24.60
2018-05-12T02:00:28.139Z,25.37
2018-05-12T02:01:34.670Z,26.48
2018-05-12T02:02:40.428Z,26.15
2018-05-12T02:03:46.977Z,24.70
2018-05-12T02:04:52.761Z,27.85
2018-05-12T02:05:58.540Z,25.40
2018-05-12T02:07:04.324Z,25.17
2018-05-12T02:08:10.856Z,25.37
2018-05-12T02:09:16.623Z,27.87
2018-05-12T02:10:23.160Z,25.88
2018-05-12T02:11:28.948Z,25.58
2018-05-12T02:12:34.781Z,28.30
2018-05-12T02:13:40.560Z,26.77
2018-05-12T02:14:46.324Z,24.23
2018-05-12T02:15:52.941Z,27.75
2018-05-12T02:16:58.782Z,24.92
2018-05-12T02:18:04.563Z,25.80
2018-05-12T02:19:10.346Z,25.45
2018-05-12T02:20:16.892Z,24.80
2018-05-12T02:21:22.663Z,26.87
2018-05-12T02:22:28.455Z,26.45
2018-05-12T02:23:34.227Z,26.83
2018-05-12T02:24:40.770Z,29.77
2018-05-12T02:25:46.548Z,25.77
2018-05-12T02:26:53.103Z,27.10
2018-05-12T02:27:59.646Z,27.48
2018-05-12T02:29:06.207Z,26.85
2018-05-12T02:30:12.745Z,27.08
2018-05-12T02:31:18.504Z,26.77
2018-05-12T02:32:25.254Z,27.77
2018-05-12T02:33:31.055Z,27.70
2018-05-12T02:34:36.836Z,27.50
2018-05-12T02:35:42.608Z,26.37
2018-05-12T02:36:49.143Z,26.33
2018-05-12T02:37:54.924Z,27.77
2018-05-12T02:39:00.723Z,27.87
2018-05-12T02:40:06.492Z,27.23
2018-05-12T02:41:13.076Z,30.17
2018-05-12T02:42:18.934Z,29.52
2018-05-12T02:43:24.822Z,28.45
2018-05-12T02:44:31.416Z,28.90
2018-05-12T02:45:37.267Z,26.87
2018-05-12T02:46:43.040Z,27.02
2018-05-12T02:47:48.817Z,27.30
2018-05-12T02:48:54.583Z,28.73
2018-05-12T02:50:00.388Z,28.83
2018-05-12T02:51:07.664Z,28.62
2018-05-12T02:52:13.426Z,28.70
2018-05-12T02:53:19.971Z,27.70
2018-05-12T02:54:27.393Z,28.10
2018-05-12T02:55:33.238Z,28.38
2018-05-12T02:56:39.003Z,30.62
2018-05-12T02:57:44.823Z,32.00
2018-05-12T02:58:50.583Z,29.40
2018-05-12T02:59:56.359Z,28.23
2018-05-12T03:01:02.195Z,28.90
2018-05-12T03:02:08.149Z,26.27
2018-05-12T03:03:13.915Z,29.63
2018-05-12T03:04:20.448Z,27.77
2018-05-12T03:05:26.213Z,28.02
2018-05-12T03:06:32.802Z,32.33
2018-05-12T03:07:38.575Z,29.40
2018-05-12T03:08:44.331Z,29.63
2018-05-12T03:09:50.104Z,29.77
2018-05-12T03:10:56.640Z,29.35
2018-05-12T03:12:02.446Z,29.65
2018-05-12T03:13:08.216Z,29.30
2018-05-12T03:14:13.999Z,28.70
2018-05-12T03:15:20.540Z,33.10
2018-05-12T03:16:27.063Z,29.92
2018-05-12T03:17:32.851Z,31.00
2018-05-12T03:18:39.387Z,31.23
2018-05-12T03:19:45.922Z,30.30
2018-05-12T03:20:51.693Z,30.05
2018-05-12T03:21:58.966Z,29.12
2018-05-12T03:23:04.757Z,29.30
2018-05-12T03:24:10.525Z,28.10
2018-05-12T03:25:16.290Z,30.48
2018-05-12T03:26:22.078Z,28.35
2018-05-12T03:27:27.839Z,28.98
2018-05-12T03:28:33.662Z,31.48
2018-05-12T03:29:39.422Z,30.77
2018-05-12T03:30:45.212Z,30.90
2018-05-12T03:31:50.990Z,31.60
2018-05-12T03:32:57.039Z,29.37
2018-05-12T03:34:02.834Z,30.05
2018-05-12T03:35:08.610Z,31.23
2018-05-12T03:36:15.147Z,30.65
2018-05-12T03:37:20.909Z,32.80
2018-05-12T03:38:27.124Z,34.05
2018-05-12T03:39:32.924Z,33.47
2018-05-12T03:40:38.699Z,32.95
2018-05-12T03:41:44.127Z,30.70
2018-05-12T03:42:49.900Z,35.45
2018-05-12T03:43:55.340Z,34.40
2018-05-12T03:45:01.128Z,36.50
2018-05-12T03:46:06.891Z,31.73
2018-05-12T03:47:12.659Z,32.80
2018-05-12T03:48:19.196Z,32.65
2018-05-12T03:49:25.189Z,32.70
2018-05-12T03:50:31.739Z,30.65
2018-05-12T03:51:38.283Z,31.58
2018-05-12T03:52:44.391Z,32.20
2018-05-12T03:53:50.157Z,32.35
2018-05-12T03:54:55.926Z,33.63
2018-05-12T03:56:02.520Z,35.65
2018-05-12T03:57:08.295Z,32.30
2018-05-12T03:58:14.064Z,33.53
2018-05-12T03:59:19.831Z,31.25
2018-05-12T04:00:26.355Z,32.65
2018-05-12T04:01:32.159Z,33.92
2018-05-12T04:02:37.927Z,33.22
2018-05-12T04:03:44.044Z,33.17
2018-05-12T04:05:06.662Z,35.33
2018-05-12T04:06:29.864Z,38.05
2018-05-12T04:07:52.475Z,32.53
2018-05-12T04:09:15.003Z,37.83
2018-05-12T04:12:16.918Z,35.95
2018-05-12T04:13:22.704Z,34.85
2018-05-12T04:14:28.854Z,34.75
2018-05-12T04:15:34.623Z,47.97
2018-05-12T04:16:40.401Z,46.28
2018-05-12T04:17:46.178Z,35.42
2018-05-12T04:18:51.968Z,37.75
2018-05-12T04:19:57.732Z,36.03
2018-05-12T04:21:03.558Z,38.15
2018-05-12T04:22:09.495Z,33.25
2018-05-12T04:23:15.263Z,34.70
2018-05-12T04:24:21.050Z,37.55
2018-05-12T04:25:26.820Z,37.63
2018-05-12T04:26:32.587Z,39.40
2018-05-12T04:27:39.124Z,34.05
2018-05-12T04:28:44.894Z,37.65
2018-05-12T04:29:51.659Z,39.30
2018-05-12T04:30:58.194Z,39.83
2018-05-12T04:32:03.772Z,41.05
2018-05-12T04:33:09.555Z,39.35
2018-05-12T04:34:15.316Z,35.88
2018-05-12T04:35:21.111Z,36.40
2018-05-12T04:36:26.874Z,35.30
2018-05-12T04:37:32.650Z,37.15
2018-05-12T04:38:39.923Z,35.80
2018-05-12T04:39:46.459Z,37.35
2018-05-12T04:40:52.251Z,36.80
2018-05-12T04:41:58.826Z,36.00
2018-05-12T04:43:05.118Z,37.42
2018-05-12T04:44:10.892Z,35.95
2018-05-12T04:45:17.450Z,35.75
2018-05-12T04:46:23.231Z,35.55
2018-05-12T04:47:29.004Z,40.53
2018-05-12T04:48:34.767Z,38.13
2018-05-12T04:49:40.533Z,36.35
2018-05-12T04:50:47.073Z,40.33
2018-05-12T04:51:52.864Z,37.72
2018-05-12T04:52:58.633Z,39.50
2018-05-12T04:54:04.396Z,38.40
2018-05-12T04:55:10.168Z,40.53
2018-05-12T04:56:16.702Z,38.20
2018-05-12T04:57:22.499Z,41.85
2018-05-12T04:58:28.275Z,36.20
2018-05-12T04:59:34.043Z,37.20
2018-05-12T05:00:40.583Z,39.28
2018-05-12T05:01:46.419Z,41.20
2018-05-12T05:02:52.213Z,40.67
2018-05-12T05:03:57.979Z,37.17
2018-05-12T05:05:03.419Z,36.20
2018-05-12T05:06:09.183Z,38.78
2018-05-12T05:07:14.954Z,38.40
2018-05-12T05:08:21.541Z,38.28
2018-05-12T05:09:27.352Z,36.70
2018-05-12T05:10:34.349Z,36.33
2018-05-12T05:11:40.178Z,40.12
2018-05-12T05:12:45.976Z,41.65
2018-05-12T05:13:51.776Z,41.00
2018-05-12T05:14:57.540Z,38.35
2018-05-12T05:16:03.322Z,40.30
2018-05-12T05:17:09.085Z,39.47
2018-05-12T05:18:15.621Z,40.08
2018-05-12T05:19:22.926Z,40.67
2018-05-12T05:20:29.459Z,41.63
2018-05-12T05:21:35.227Z,38.08
2018-05-12T05:22:40.991Z,48.00
2018-05-12T05:23:46.780Z,40.97
2018-05-12T05:24:52.574Z,47.42
2018-05-12T05:25:58.355Z,42.75
2018-05-12T05:27:03.851Z,42.15
2018-05-12T05:28:09.619Z,40.95
2018-05-12T05:29:15.402Z,45.95
2018-05-12T05:30:21.975Z,40.35
2018-05-12T05:31:27.751Z,45.25
2018-05-12T05:32:33.510Z,40.38
2018-05-12T05:33:39.295Z,43.28
2018-05-12T05:34:45.840Z,42.92
2018-05-12T05:35:52.397Z,47.15
2018-05-12T05:36:58.162Z,43.58
2018-05-12T05:38:04.027Z,45.15
2018-05-12T05:39:09.463Z,48.05
2018-05-12T05:40:15.250Z,40.20
2018-05-12T05:41:22.760Z,43.33
2018-05-12T05:42:29.288Z,40.85
2018-05-12T05:43:35.064Z,43.72
2018-05-12T05:44:41.620Z,41.80
2018-05-12T05:45:48.156Z,47.97
2018-05-12T05:46:53.946Z,41.25
2018-05-12T05:47:59.715Z,47.42
2018-05-12T05:49:05.476Z,41.08
2018-05-12T05:50:11.340Z,47.22
2018-05-12T05:51:17.240Z,39.83
2018-05-12T05:52:23.072Z,42.38
2018-05-12T05:53:28.838Z,47.10
2018-05-12T05:54:34.642Z,43.75
2018-05-12T05:55:40.465Z,44.58
2018-05-12T05:56:47.040Z,44.42
2018-05-12T05:57:52.850Z,41.30
2018-05-12T05:58:58.625Z,41.92
2018-05-12T06:00:03.925Z,41.13
2018-05-12T06:01:09.473Z,41.00
2018-05-12T06:02:16.003Z,43.03
2018-05-12T06:03:21.833Z,37.67
2018-05-12T06:04:27.599Z,39.30
2018-05-12T06:05:33.377Z,43.58
2018-05-12T06:06:39.154Z,39.20
2018-05-12T06:07:44.944Z,41.55
2018-05-12T06:08:51.541Z,41.20
2018-05-12T06:09:57.305Z,39.58
2018-05-12T06:11:03.070Z,39.75
2018-05-12T06:12:08.839Z,35.75
2018-05-12T06:13:15.386Z,40.90
2018-05-12T06:14:21.942Z,39.88
2018-05-12T06:15:28.475Z,40.53
2018-05-12T06:16:34.242Z,44.50
2018-05-12T06:17:40.787Z,44.20
2018-05-12T06:18:46.560Z,45.15
2018-05-12T06:19:52.373Z,38.40
2018-05-12T06:20:58.151Z,44.10
2018-05-12T06:22:03.931Z,43.92
2018-05-12T06:23:09.708Z,43.75
2018-05-12T06:24:15.471Z,39.22
2018-05-12T06:25:22.044Z,42.88
2018-05-12T06:26:27.821Z,39.50
2018-05-12T06:27:33.614Z,41.75
2018-05-12T06:28:39.387Z,41.85
2018-05-12T06:29:45.197Z,39.72
2018-05-12T06:30:51.963Z,43.03
2018-05-12T06:31:58.514Z,42.85
2018-05-12T06:33:06.919Z,39.63
2018-05-12T06:34:13.464Z,42.90
2018-05-12T06:35:19.240Z,37.70
2018-05-12T06:36:25.032Z,38.95
2018-05-12T06:37:30.862Z,41.00
2018-05-12T06:38:36.634Z,42.70
2018-05-12T06:39:42.404Z,40.10
2018-05-12T06:40:48.939Z,39.65
2018-05-12T06:41:54.730Z,40.97
2018-05-12T06:43:00.509Z,40.80
2018-05-12T06:44:07.788Z,40.83
2018-05-12T06:45:13.564Z,38.45
2018-05-12T06:46:19.867Z,41.92
2018-05-12T06:47:25.664Z,40.15
2018-05-12T06:48:32.209Z,39.80
2018-05-12T06:49:38.759Z,39.97
2018-05-12T06:50:45.336Z,40.20
2018-05-12T06:51:51.888Z,44.40
2018-05-12T06:52:57.741Z,38.47
2018-05-12T06:54:04.275Z,42.42
2018-05-12T06:55:10.067Z,44.45
2018-05-12T06:56:15.839Z,42.05
2018-05-12T06:57:21.329Z,40.22
2018-05-12T06:58:27.900Z,39.17
2018-05-12T06:59:33.659Z,39.03
2018-05-12T07:00:39.439Z,35.08
2018-05-12T07:01:46.744Z,38.83
2018-05-12T07:02:53.380Z,40.17
2018-05-12T07:03:59.167Z,42.42
2018-05-12T07:05:04.605Z,39.53
2018-05-12T07:06:10.391Z,38.65
2018-05-12T07:07:16.157Z,40.88
2018-05-12T07:08:22.697Z,39.90
2018-05-12T07:09:28.485Z,39.20
2018-05-12T07:10:34.059Z,39.58
2018-05-12T07:11:39.823Z,38.55
2018-05-12T07:12:45.598Z,39.25
2018-05-12T07:13:51.378Z,45.72
2018-05-12T07:14:57.178Z,39.17
2018-05-12T07:16:03.715Z,40.00
2018-05-12T07:17:10.260Z,38.47
2018-05-12T07:18:16.024Z,41.10
2018-05-12T07:19:22.630Z,37.25
2018-05-12T07:20:28.573Z,41.65
2018-05-12T07:21:34.349Z,40.72
2018-05-12T07:22:40.141Z,40.25
2018-05-12T07:23:46.672Z,38.80
2018-05-12T07:24:53.956Z,37.70
2018-05-12T07:25:59.731Z,35.90
2018-05-12T07:27:05.510Z,39.38
2018-05-12T07:28:11.389Z,38.97
2018-05-12T07:29:17.919Z,38.08
2018-05-12T07:30:23.683Z,38.17
2018-05-12T07:31:30.243Z,37.88
2018-05-12T07:32:36.775Z,37.85
2018-05-12T07:33:42.547Z,37.10
2018-05-12T07:34:49.080Z,38.75
2018-05-12T07:35:54.847Z,34.78
2018-05-12T07:37:01.412Z,36.33
2018-05-12T07:38:07.945Z,34.97
2018-05-12T07:39:13.707Z,40.53
2018-05-12T07:40:20.298Z,35.08
2018-05-12T07:41:26.454Z,34.42
2018-05-12T07:42:32.241Z,35.55
2018-05-12T07:43:37.773Z,35.17
2018-05-12T07:44:43.545Z,30.55
2018-05-12T07:45:49.795Z,31.42
2018-05-12T07:46:56.332Z,31.20
2018-05-12T07:48:02.122Z,34.30
2018-05-12T07:49:07.915Z,34.00
2018-05-12T07:50:13.683Z,36.05
2018-05-12T07:51:20.223Z,34.28
2018-05-12T07:52:25.987Z,34.67
2018-05-12T07:53:32.543Z,34.25
2018-05-12T07:54:38.299Z,34.10
2018-05-12T07:55:44.068Z,35.20
2018-05-12T07:56:49.869Z,38.83
2018-05-12T07:57:55.852Z,36.97
2018-05-12T07:59:02.016Z,35.58
2018-05-12T08:00:07.448Z,33.45
2018-05-12T08:01:12.901Z,34.70
2018-05-12T08:02:18.656Z,35.38
2018-05-12T08:03:24.431Z,36.47
2018-05-12T08:04:30.983Z,32.92
2018-05-12T08:05:37.547Z,35.15
2018-05-12T08:06:44.080Z,33.92
2018-05-12T08:07:50.439Z,34.80
2018-05-12T08:08:56.207Z,34.47
2018-05-12T08:10:02.562Z,37.25
2018-05-12T08:11:08.862Z,32.70
2018-05-12T08:12:14.627Z,36.55
2018-05-12T08:13:20.403Z,34.95
2018-05-12T08:14:26.975Z,35.08
2018-05-12T08:15:33.539Z,33.70
2018-05-12T08:16:39.305Z,35.85
2018-05-12T08:17:45.087Z,33.88
2018-05-12T08:18:51.088Z,34.83
2018-05-12T08:19:56.882Z,35.88
2018-05-12T08:21:02.475Z,37.28
2018-05-12T08:22:08.265Z,33.03
2018-05-12T08:23:13.791Z,37.47
2018-05-12T08:24:20.320Z,33.40
2018-05-12T08:25:26.088Z,35.53
2018-05-12T08:26:31.891Z,35.20
2018-05-12T08:27:37.665Z,37.45
2018-05-12T08:28:43.419Z,33.92
2018-05-12T08:29:48.766Z,35.58
2018-05-12T08:30:55.286Z,35.17
2018-05-12T08:32:01.077Z,35.45
2018-05-12T08:33:07.596Z,34.72
2018-05-12T08:34:13.459Z,36.55
2018-05-12T08:35:19.220Z,33.90
2018-05-12T08:36:25.748Z,35.60
2018-05-12T08:37:31.535Z,34.25
2018-05-12T08:38:37.313Z,34.50
2018-05-12T08:39:43.089Z,35.35
2018-05-12T08:40:48.851Z,33.58
2018-05-12T08:41:55.388Z,33.95
2018-05-12T08:43:01.184Z,31.98
2018-05-12T08:44:06.955Z,33.10
2018-05-12T08:45:12.735Z,32.08
2018-05-12T08:46:18.507Z,33.08
2018-05-12T08:47:24.309Z,32.58
2018-05-12T08:48:30.874Z,32.92
2018-05-12T08:49:36.648Z,32.03
2018-05-12T08:50:42.415Z,29.95
2018-05-12T08:51:48.191Z,30.02
2018-05-12T08:52:54.719Z,31.35
2018-05-12T08:54:00.516Z,31.05
2018-05-12T08:55:05.951Z,31.12
2018-05-12T08:56:11.999Z,31.25
2018-05-12T08:57:17.763Z,31.00
2018-05-12T08:58:23.536Z,31.23
2018-05-12T08:59:30.835Z,30.55
2018-05-12T09:00:37.480Z,32.33
2018-05-12T09:01:43.259Z,32.70
2018-05-12T09:02:49.183Z,33.00
2018-05-12T09:03:55.465Z,31.27
2018-05-12T09:05:01.252Z,32.17
2018-05-12T09:06:07.032Z,33.08
2018-05-12T09:07:13.611Z,30.45
2018-05-12T09:08:19.556Z,32.38
2018-05-12T09:09:25.338Z,33.15
2018-05-12T09:10:31.137Z,33.83
2018-05-12T09:11:36.903Z,33.25
2018-05-12T09:12:42.675Z,32.60
2018-05-12T09:13:49.203Z,31.80
2018-05-12T09:14:54.976Z,32.10
2018-05-12T09:16:00.776Z,30.00
2018-05-12T09:17:06.543Z,32.20
2018-05-12T09:18:12.408Z,30.85
2018-05-12T09:19:18.194Z,31.05
2018-05-12T09:20:24.165Z,33.17
2018-05-12T09:21:29.948Z,34.83
2018-05-12T09:22:35.720Z,30.73
2018-05-12T09:23:41.486Z,32.88
2018-05-12T09:24:47.242Z,32.90
2018-05-12T09:25:52.778Z,28.83
2018-05-12T09:26:58.577Z,31.12
2018-05-12T09:28:04.374Z,27.95
2018-05-12T09:29:10.143Z,29.73
2018-05-12T09:30:17.219Z,27.67
2018-05-12T09:31:23.755Z,28.40
2018-05-12T09:32:29.552Z,27.98
2018-05-12T09:33:35.325Z,26.70
2018-05-12T09:34:41.096Z,28.85
2018-05-12T09:35:46.855Z,28.17
2018-05-12T09:36:53.062Z,28.67
2018-05-12T09:37:58.847Z,28.40
2018-05-12T09:39:04.610Z,26.75
2018-05-12T09:40:10.386Z,28.38
2018-05-12T09:41:16.174Z,29.40
2018-05-12T09:42:22.755Z,28.12
2018-05-12T09:43:28.713Z,28.48
2018-05-12T09:44:34.481Z,28.27
2018-05-12T09:45:40.252Z,26.77
2018-05-12T09:46:46.787Z,27.35
2018-05-12T09:47:52.553Z,28.25
2018-05-12T09:48:58.017Z,27.05
2018-05-12T09:50:03.558Z,27.23
2018-05-12T09:51:09.096Z,26.20
2018-05-12T09:52:14.914Z,28.83
2018-05-12T09:53:20.848Z,28.75
2018-05-12T09:54:27.426Z,28.73
2018-05-12T09:55:33.955Z,29.35
2018-05-12T09:56:39.726Z,27.98
2018-05-12T09:57:46.272Z,26.30
2018-05-12T09:58:52.818Z,27.52
2018-05-12T09:59:58.780Z,27.65
2018-05-12T10:01:05.325Z,27.60
2018-05-12T10:02:11.094Z,27.92
2018-05-12T10:03:17.630Z,28.55
2018-05-12T10:04:24.915Z,26.98
2018-05-12T10:05:31.206Z,27.77
2018-05-12T10:06:36.648Z,27.30
2018-05-12T10:07:42.415Z,27.25
2018-05-12T10:08:49.346Z,28.12
2018-05-12T10:09:55.110Z,25.30
2018-05-12T10:11:00.903Z,27.60
2018-05-12T10:12:06.680Z,27.10
2018-05-12T10:13:12.452Z,24.98
2018-05-12T10:14:18.231Z,27.95
2018-05-12T10:15:24.313Z,24.95
2018-05-12T10:16:30.151Z,27.62
2018-05-12T10:17:35.928Z,27.08
2018-05-12T10:18:41.726Z,27.67
2018-05-12T10:19:47.527Z,26.02
2018-05-12T10:20:53.296Z,26.52
2018-05-12T10:21:59.852Z,25.35
2018-05-12T10:23:06.392Z,24.12
2018-05-12T10:24:12.196Z,27.58
2018-05-12T10:25:17.975Z,25.73
2018-05-12T10:26:25.251Z,29.15
2018-05-12T10:27:31.042Z,26.85
2018-05-12T10:28:36.816Z,27.55
2018-05-12T10:29:42.587Z,27.55
2018-05-12T10:30:49.219Z,25.00
2018-05-12T10:31:55.317Z,27.48
2018-05-12T10:33:01.877Z,25.73
2018-05-12T10:34:08.735Z,26.75
2018-05-12T10:35:15.268Z,28.50
2018-05-12T10:36:21.055Z,28.95
2018-05-12T10:37:27.600Z,28.23
2018-05-12T10:38:34.164Z,26.55
2018-05-12T10:39:40.729Z,28.83
2018-05-12T10:40:47.254Z,29.55
2018-05-12T10:41:53.048Z,29.77
2018-05-12T10:42:58.825Z,31.12
2018-05-12T10:44:04.635Z,29.33
2018-05-12T10:45:10.475Z,30.00
2018-05-12T10:46:16.249Z,29.37
2018-05-12T10:47:22.024Z,29.50
2018-05-12T10:48:27.806Z,31.08
2018-05-12T10:49:33.600Z,30.77
2018-05-12T10:50:39.376Z,30.65
2018-05-12T10:51:45.922Z,31.25
2018-05-12T10:52:52.464Z,31.87
2018-05-12T10:53:58.239Z,29.80
2018-05-12T10:55:04.051Z,27.35
2018-05-12T10:56:09.823Z,28.35
2018-05-12T10:57:15.610Z,23.48
2018-05-12T10:58:21.387Z,25.20
2018-05-12T10:59:27.942Z,25.20
2018-05-12T11:00:33.786Z,26.20
2018-05-12T11:01:39.564Z,26.05
2018-05-12T11:02:45.405Z,26.33
2018-05-12T11:03:51.179Z,27.17
2018-05-12T11:04:56.998Z,27.65
2018-05-12T11:06:02.820Z,26.62
2018-05-12T11:07:09.369Z,27.83
2018-05-12T11:08:15.166Z,24.95
2018-05-12T11:09:20.965Z,26.67
2018-05-12T11:10:27.337Z,25.50
2018-05-12T11:11:33.906Z,28.02
2018-05-12T11:12:39.667Z,28.40
2018-05-12T11:13:45.441Z,28.02
2018-05-12T11:14:51.984Z,27.90
2018-05-12T11:15:57.770Z,24.25
2018-05-12T11:17:04.529Z,24.30
2018-05-12T11:18:11.072Z,24.90
2018-05-12T11:19:16.841Z,24.42
2018-05-12T11:20:22.697Z,26.95
2018-05-12T11:21:28.600Z,26.25
2018-05-12T11:22:35.151Z,25.62
2018-05-12T11:23:40.914Z,26.15
2018-05-12T11:24:47.469Z,26.10
2018-05-12T11:25:54.043Z,27.95
2018-05-12T11:27:00.601Z,26.30
2018-05-12T11:28:07.163Z,27.13
2018-05-12T11:29:13.687Z,22.65
2018-05-12T11:30:19.463Z,23.60
2018-05-12T11:31:26.021Z,24.40
2018-05-12T11:32:32.631Z,26.95
2018-05-12T11:33:38.426Z,25.77
2018-05-12T11:34:44.966Z,28.00
2018-05-12T11:35:50.757Z,28.42
2018-05-12T11:36:56.531Z,27.75
2018-05-12T11:38:02.648Z,25.58
2018-05-12T11:39:08.437Z,28.65
2018-05-12T11:40:14.430Z,29.17
2018-05-12T11:41:20.241Z,28.92
2018-05-12T11:42:26.005Z,27.33
2018-05-12T11:43:31.798Z,27.67
2018-05-12T11:44:37.643Z,26.67
2018-05-12T11:45:43.568Z,27.50
2018-05-12T11:46:49.344Z,27.30
2018-05-12T11:47:55.111Z,27.50
2018-05-12T11:49:02.038Z,29.17
2018-05-12T11:50:08.342Z,27.08
2018-05-12T11:51:14.243Z,28.48
2018-05-12T11:52:20.015Z,28.60
2018-05-12T11:53:26.558Z,29.65
2018-05-12T11:54:32.321Z,29.55
2018-05-12T11:55:38.127Z,26.60
2018-05-12T11:56:43.896Z,28.52
2018-05-12T11:57:50.428Z,27.52
2018-05-12T11:58:56.198Z,29.42
2018-05-12T12:00:01.979Z,29.87
2018-05-12T12:01:07.776Z,27.85
2018-05-12T12:02:13.543Z,28.75
2018-05-12T12:03:20.075Z,29.50
2018-05-12T12:04:25.856Z,29.02
2018-05-12T12:05:31.633Z,28.02
2018-05-12T12:06:37.428Z,26.52
2018-05-12T12:07:43.431Z,25.40
2018-05-12T12:08:49.279Z,28.70
2018-05-12T12:09:55.093Z,31.05
2018-05-12T12:11:00.864Z,28.87
2018-05-12T12:12:06.660Z,24.25
2018-05-12T12:13:12.441Z,27.20
2018-05-12T12:14:18.216Z,24.40
2018-05-12T12:15:24.799Z,29.00
2018-05-12T12:16:30.572Z,24.23
2018-05-12T12:17:36.344Z,25.48
2018-05-12T12:18:42.107Z,24.37
2018-05-12T12:19:47.881Z,24.67
2018-05-12T12:20:53.544Z,26.23
2018-05-12T12:21:59.312Z,24.35
2018-05-12T12:23:05.102Z,25.62
2018-05-12T12:24:10.944Z,25.55
2018-05-12T12:25:16.723Z,24.25
2018-05-12T12:26:22.500Z,23.30
2018-05-12T12:27:28.271Z,24.87
2018-05-12T12:28:34.106Z,23.70
2018-05-12T12:29:39.896Z,24.12
2018-05-12T12:30:45.664Z,22.00
2018-05-12T12:31:51.440Z,22.92
2018-05-12T12:32:57.232Z,23.05
2018-05-12T12:34:03.025Z,22.83
2018-05-12T12:35:09.559Z,22.67
2018-05-12T12:36:15.332Z,23.70
2018-05-12T12:37:21.879Z,22.02
2018-05-12T12:38:28.069Z,23.12
2018-05-12T12:39:33.876Z,22.73
2018-05-12T12:40:39.642Z,24.45
2018-05-12T12:41:45.178Z,22.33
2018-05-12T12:42:51.919Z,21.85
2018-05-12T12:43:57.695Z,18.75
2018-05-12T12:45:03.493Z,24.02
2018-05-12T12:46:09.471Z,25.35
2018-05-12T12:47:16.002Z,24.08
2018-05-12T12:48:22.535Z,23.52
2018-05-12T12:49:28.348Z,25.25
2018-05-12T12:50:34.140Z,22.17
2018-05-12T12:51:40.762Z,23.00
2018-05-12T12:52:46.702Z,23.42
2018-05-12T12:53:52.463Z,24.15
2018-05-12T12:54:58.241Z,23.45
2018-05-12T12:56:04.479Z,23.02
2018-05-12T12:57:10.303Z,24.40
2018-05-12T12:58:16.218Z,23.00
2018-05-12T12:59:22.629Z,24.92
2018-05-12T13:00:28.437Z,25.17
2018-05-12T13:01:34.995Z,24.60
2018-05-12T13:02:40.771Z,23.70
2018-05-12T13:03:46.545Z,21.23
2018-05-12T13:04:53.143Z,21.17
2018-05-12T13:05:59.058Z,21.12
2018-05-12T13:07:06.367Z,21.75
2018-05-12T13:08:12.139Z,19.60
2018-05-12T13:09:17.937Z,22.65
2018-05-12T13:10:24.488Z,20.02
2018-05-12T13:11:31.070Z,20.85
2018-05-12T13:12:36.943Z,20.80
2018-05-12T13:13:42.805Z,20.95
2018-05-12T13:14:48.572Z,21.42
2018-05-12T13:15:54.356Z,21.60
2018-05-12T13:17:00.404Z,23.65
2018-05-12T13:18:06.262Z,22.27
2018-05-12T13:19:12.100Z,23.15
2018-05-12T13:20:17.933Z,22.60
2018-05-12T13:21:23.719Z,23.15
2018-05-12T13:22:29.845Z,22.87
2018-05-12T13:23:35.639Z,24.15
2018-05-12T13:24:42.175Z,24.85
2018-05-12T13:25:47.946Z,22.90
2018-05-12T13:26:54.837Z,23.02
2018-05-12T13:28:00.815Z,22.77
2018-05-12T13:29:06.010Z,25.00
2018-05-12T13:30:11.752Z,23.08
2018-05-12T13:31:17.551Z,23.12
2018-05-12T13:32:24.151Z,23.17
2018-05-12T13:33:30.138Z,23.70
2018-05-12T13:34:36.211Z,19.52
2018-05-12T13:35:42.276Z,23.98
2018-05-12T13:36:49.023Z,23.45
2018-05-12T13:37:54.874Z,24.83
2018-05-12T13:39:00.693Z,23.90
2018-05-12T13:40:06.509Z,24.85
2018-05-12T13:41:12.333Z,22.23
2018-05-12T13:42:18.899Z,23.65
2018-05-12T13:43:24.743Z,23.33
2018-05-12T13:44:31.099Z,23.58
2018-05-12T13:45:37.159Z,22.15
2018-05-12T13:46:43.943Z,19.40
2018-05-12T13:47:49.716Z,20.92
2018-05-12T13:48:55.634Z,20.92
2018-05-12T13:50:01.440Z,20.70
2018-05-12T13:51:07.247Z,20.50
2018-05-12T13:52:14.595Z,20.90
2018-05-12T13:53:20.360Z,20.10
2018-05-12T13:54:26.163Z,21.15
2018-05-12T13:55:31.924Z,20.20
2018-05-12T13:56:37.731Z,20.73
2018-05-12T13:57:43.496Z,21.65
2018-05-12T13:58:49.271Z,19.40
2018-05-12T13:59:55.033Z,20.60
2018-05-12T14:01:01.579Z,19.87
2018-05-12T14:02:08.175Z,19.85
2018-05-12T14:03:13.945Z,18.37
2018-05-12T14:04:19.716Z,19.35
2018-05-12T14:05:25.527Z,18.27
2018-05-12T14:06:31.299Z,19.05
2018-05-12T14:07:37.165Z,19.52
2018-05-12T14:08:43.743Z,18.55
2018-05-12T14:09:49.513Z,19.20
2018-05-12T14:10:55.390Z,20.30
2018-05-12T14:12:02.834Z,19.30
2018-05-12T14:13:09.096Z,19.48